createdAt,value
2022-11-20T00:01:26.610Z,28.40
2022-11-20T00:03:55.058Z,30.40
2022-11-20T00:06:22.724Z,25.88
2022-11-20T00:08:49.651Z,31.55
2022-11-20T00:11:21.507Z,24.63
2022-11-20T00:13:49.947Z,24.00
2022-11-20T00:16:19.313Z,29.27
2022-11-20T00:18:46.387Z,27.27
2022-11-20T00:21:18.117Z,25.52
2022-11-20T00:23:44.883Z,28.48
2022-11-20T00:26:14.410Z,26.33
2022-11-20T00:28:41.594Z,27.73
2022-11-20T00:31:16.933Z,29.75
2022-11-20T00:33:44.654Z,24.67
2022-11-20T00:36:13.887Z,26.50
2022-11-20T00:38:40.743Z,29.60
2022-11-20T00:41:10.179Z,25.55
2022-11-20T00:43:37.488Z,26.35
2022-11-20T00:46:10.116Z,26.75
2022-11-20T00:48:36.758Z,29.02
2022-11-20T00:51:03.276Z,27.27
2022-11-20T00:53:29.741Z,28.25
2022-11-20T00:55:57.936Z,29.85
2022-11-20T00:58:25.577Z,31.13
2022-11-20T01:00:52.221Z,24.40
2022-11-20T01:03:24.136Z,26.85
2022-11-20T01:05:53.303Z,25.17
2022-11-20T01:08:19.719Z,29.02
2022-11-20T01:10:46.137Z,24.50
2022-11-20T01:13:30.970Z,24.35
2022-11-20T01:16:03.684Z,29.90
2022-11-20T01:18:30.127Z,27.38
2022-11-20T01:20:56.610Z,24.80
2022-11-20T01:23:23.202Z,24.15
2022-11-20T01:25:49.718Z,27.45
2022-11-20T01:28:16.238Z,27.25
2022-11-20T01:30:42.685Z,25.27
2022-11-20T01:33:09.106Z,26.15
2022-11-20T01:35:35.606Z,28.02
2022-11-20T01:38:02.057Z,24.67
2022-11-20T01:40:28.471Z,32.00
2022-11-20T01:43:24.191Z,28.00
2022-11-20T01:46:20.501Z,26.98
2022-11-20T01:48:56.955Z,23.88
2022-11-20T01:51:44.731Z,26.02
2022-11-20T01:54:18.075Z,23.08
2022-11-20T01:56:47.405Z,24.95
2022-11-20T01:59:18.942Z,29.35
2022-11-20T02:01:46.094Z,24.50
2022-11-20T02:04:14.735Z,26.77
2022-11-20T02:07:24.946Z,27.05
2022-11-20T02:09:57.384Z,27.30
2022-11-20T02:12:43.624Z,26.23
2022-11-20T02:15:10.485Z,30.27
2022-11-20T02:17:37.078Z,26.15
2022-11-20T02:20:05.358Z,29.27
2022-11-20T02:22:39.507Z,31.25
2022-11-20T02:25:08.645Z,27.83
2022-11-20T02:27:35.263Z,24.63
2022-11-20T02:30:04.515Z,26.75
2022-11-20T02:32:33.846Z,24.90
2022-11-20T02:35:27.681Z,25.55
2022-11-20T02:37:56.826Z,28.10
2022-11-20T02:40:23.927Z,31.20
2022-11-20T02:42:57.766Z,26.48
2022-11-20T02:45:24.999Z,25.33
2022-11-20T02:47:52.314Z,25.95
2022-11-20T02:50:19.010Z,29.10
2022-11-20T02:52:45.426Z,25.50
2022-11-20T02:55:12.019Z,28.73
2022-11-20T02:57:38.479Z,27.77
2022-11-20T03:00:05.642Z,27.77
2022-11-20T03:02:32.456Z,33.03
2022-11-20T03:04:59.133Z,25.48
2022-11-20T03:07:26.551Z,27.52
2022-11-20T03:09:53.042Z,28.13
2022-11-20T03:12:19.482Z,25.30
2022-11-20T03:14:50.189Z,30.48
2022-11-20T03:17:19.341Z,28.60
2022-11-20T03:19:45.790Z,29.58
2022-11-20T03:22:12.245Z,31.27
2022-11-20T03:24:38.730Z,30.70
2022-11-20T03:27:05.223Z,27.50
2022-11-20T03:29:31.690Z,28.90
2022-11-20T03:31:58.227Z,31.77
2022-11-20T03:34:24.794Z,30.65
2022-11-20T03:36:51.187Z,29.88
2022-11-20T03:39:17.581Z,28.67
2022-11-20T03:41:44.388Z,30.75
2022-11-20T03:44:12.378Z,30.80
2022-11-20T03:46:39.180Z,26.98
2022-11-20T03:49:05.760Z,29.27
2022-11-20T03:51:34.569Z,32.15
2022-11-20T03:54:04.364Z,30.38
2022-11-20T03:56:33.223Z,27.92
2022-11-20T03:59:00.003Z,27.95
2022-11-20T04:01:29.287Z,26.83
2022-11-20T04:03:57.344Z,30.50
2022-11-20T04:06:26.835Z,29.23
2022-11-20T04:08:56.473Z,32.70
2022-11-20T04:11:26.022Z,33.80
2022-11-20T04:13:58.055Z,32.03
2022-11-20T04:16:26.085Z,35.00
2022-11-20T04:18:57.348Z,34.40
2022-11-20T04:21:24.600Z,29.25
2022-11-20T04:23:52.230Z,29.10
2022-11-20T04:26:18.682Z,30.77
2022-11-20T04:28:45.107Z,28.45
2022-11-20T04:31:17.488Z,29.60
2022-11-20T04:33:44.601Z,28.20
2022-11-20T04:36:17.347Z,31.20
2022-11-20T04:38:44.207Z,31.60
2022-11-20T04:41:21.999Z,31.73
2022-11-20T04:43:50.425Z,32.33
2022-11-20T04:46:21.295Z,31.60
2022-11-20T04:48:48.828Z,35.63
2022-11-20T04:51:15.719Z,29.10
2022-11-20T04:53:42.950Z,29.60
2022-11-20T04:56:11.960Z,28.08
2022-11-20T04:58:39.160Z,33.38
2022-11-20T05:01:09.770Z,30.25
2022-11-20T05:03:41.060Z,35.20
2022-11-20T05:06:10.375Z,31.95
2022-11-20T05:08:36.858Z,28.95
2022-11-20T05:11:08.921Z,30.50
2022-11-20T05:13:35.398Z,27.63
2022-11-20T05:16:06.659Z,31.17
2022-11-20T05:18:34.807Z,30.70
2022-11-20T05:21:01.273Z,36.15
2022-11-20T05:23:28.459Z,30.88
2022-11-20T05:25:59.229Z,32.45
2022-11-20T05:28:27.021Z,37.40
2022-11-20T05:30:53.496Z,31.98
2022-11-20T05:33:19.974Z,34.83
2022-11-20T05:35:46.409Z,30.75
2022-11-20T05:38:12.884Z,32.67
2022-11-20T05:40:39.386Z,31.20
2022-11-20T05:43:05.871Z,30.40
2022-11-20T05:45:32.362Z,31.90
2022-11-20T05:48:01.129Z,28.75
2022-11-20T05:50:30.982Z,31.88
2022-11-20T05:53:00.989Z,34.95
2022-11-20T05:55:28.351Z,32.63
2022-11-20T05:57:55.829Z,32.15
2022-11-20T06:00:22.689Z,34.53
2022-11-20T06:02:49.265Z,34.20
2022-11-20T06:05:15.786Z,31.42
2022-11-20T06:07:42.588Z,29.92
2022-11-20T06:10:09.480Z,30.35
2022-11-20T06:12:35.982Z,31.52
2022-11-20T06:15:02.684Z,31.05
2022-11-20T06:17:29.096Z,32.13
2022-11-20T06:19:55.523Z,33.45
2022-11-20T06:22:21.917Z,39.10
2022-11-20T06:24:48.721Z,34.08
2022-11-20T06:27:15.281Z,31.08
2022-11-20T06:29:41.779Z,32.00
2022-11-20T06:32:08.221Z,32.38
2022-11-20T06:34:34.675Z,33.15
2022-11-20T06:37:01.203Z,36.85
2022-11-20T06:39:27.716Z,35.85
2022-11-20T06:41:58.549Z,35.63
2022-11-20T06:46:52.023Z,37.50
2022-11-20T06:49:18.448Z,35.42
2022-11-20T06:51:44.885Z,36.55
2022-11-20T06:54:11.420Z,34.72
2022-11-20T06:56:37.818Z,30.42
2022-11-20T06:59:08.102Z,33.33
2022-11-20T07:01:35.927Z,40.33
2022-11-20T07:04:02.997Z,31.58
2022-11-20T07:06:29.516Z,39.50
2022-11-20T07:08:55.965Z,35.72
2022-11-20T07:11:22.422Z,36.08
2022-11-20T07:13:48.837Z,40.03
2022-11-20T07:16:15.329Z,33.38
2022-11-20T07:18:45.924Z,34.53
2022-11-20T07:21:15.761Z,34.35
2022-11-20T07:23:42.213Z,33.72
2022-11-20T07:26:11.520Z,34.72
2022-11-20T07:28:38.344Z,31.83
2022-11-20T07:31:05.932Z,36.90
2022-11-20T07:33:32.433Z,36.88
2022-11-20T07:36:02.283Z,33.88
2022-11-20T07:38:28.735Z,35.40
2022-11-20T07:40:58.707Z,34.47
2022-11-20T07:43:26.220Z,30.98
2022-11-20T07:45:52.769Z,32.58
2022-11-20T07:48:19.144Z,33.80
2022-11-20T07:50:45.572Z,35.35
2022-11-20T07:53:13.354Z,34.55
2022-11-20T07:55:39.795Z,33.83
2022-11-20T07:58:06.445Z,37.67
2022-11-20T08:00:33.056Z,34.50
2022-11-20T08:02:59.630Z,33.42
2022-11-20T08:05:26.030Z,33.72
2022-11-20T08:07:52.453Z,34.17
2022-11-20T08:10:18.995Z,34.88
2022-11-20T08:13:08.905Z,29.92
2022-11-20T08:15:36.390Z,32.22
2022-11-20T08:21:04.760Z,37.95
2022-11-20T08:23:31.956Z,44.70
2022-11-20T08:25:58.444Z,35.15
2022-11-20T08:28:24.897Z,33.03
2022-11-20T08:30:51.726Z,36.55
2022-11-20T08:33:18.869Z,37.83
2022-11-20T08:35:45.437Z,34.35
2022-11-20T08:38:11.945Z,31.77
2022-11-20T08:40:38.498Z,37.30
2022-11-20T08:43:05.300Z,35.47
2022-11-20T08:45:34.496Z,36.05
2022-11-20T08:48:04.783Z,43.13
2022-11-20T08:50:33.336Z,36.22
2022-11-20T08:53:07.172Z,35.67
2022-11-20T08:55:36.282Z,43.67
2022-11-20T08:58:06.097Z,36.47
2022-11-20T09:00:33.932Z,35.60
2022-11-20T09:03:02.106Z,33.40
2022-11-20T09:05:28.773Z,34.20
2022-11-20T09:07:59.087Z,34.33
2022-11-20T09:10:26.241Z,34.13
2022-11-20T09:12:53.494Z,32.08
2022-11-20T09:15:20.715Z,36.10
2022-11-20T09:17:59.131Z,32.20
2022-11-20T09:20:26.910Z,31.48
2022-11-20T09:22:53.358Z,36.75
2022-11-20T09:25:19.791Z,36.92
2022-11-20T09:27:47.053Z,36.25
2022-11-20T09:30:15.689Z,33.83
2022-11-20T09:32:43.388Z,33.67
2022-11-20T09:35:09.853Z,32.92
2022-11-20T09:37:36.441Z,33.35
2022-11-20T09:40:02.986Z,34.75
2022-11-20T09:42:52.703Z,31.15
2022-11-20T09:45:29.673Z,32.63
2022-11-20T09:48:23.957Z,36.83
2022-11-20T09:51:02.906Z,31.13
2022-11-20T09:53:45.959Z,34.75
2022-11-20T09:56:16.995Z,29.35
2022-11-20T09:58:54.724Z,34.00
2022-11-20T10:01:27.049Z,30.15
2022-11-20T10:04:04.505Z,34.22
2022-11-20T10:06:40.612Z,30.13
2022-11-20T10:09:16.996Z,31.85
2022-11-20T10:12:22.316Z,31.08
2022-11-20T10:15:07.449Z,32.05
2022-11-20T10:17:51.963Z,32.30
2022-11-20T10:20:33.568Z,31.50
2022-11-20T10:28:35.817Z,31.17
2022-11-20T10:31:09.325Z,28.33
2022-11-20T10:34:10.610Z,37.25
2022-11-20T10:36:51.571Z,29.88
2022-11-20T10:39:23.104Z,32.63
2022-11-20T10:41:52.871Z,33.50
2022-11-20T10:44:42.926Z,30.20
2022-11-20T10:47:17.336Z,32.85
2022-11-20T10:49:50.569Z,29.27
2022-11-20T10:52:32.210Z,34.17
2022-11-20T10:57:47.663Z,31.38
2022-11-20T11:00:14.832Z,30.70
2022-11-20T11:02:48.928Z,28.30
2022-11-20T11:05:21.227Z,29.00
2022-11-20T11:07:51.449Z,28.73
2022-11-20T11:10:39.462Z,25.02
2022-11-20T11:13:05.901Z,31.45
2022-11-20T11:15:40.735Z,27.60
2022-11-20T11:18:11.406Z,27.35
2022-11-20T11:20:38.474Z,18.58
2022-11-20T11:23:06.527Z,26.73
2022-11-20T11:25:37.546Z,25.75
2022-11-20T11:28:19.059Z,27.48
2022-11-20T11:30:46.221Z,25.55
2022-11-20T11:33:27.442Z,28.90
2022-11-20T11:36:03.746Z,25.23
2022-11-20T11:38:35.177Z,27.50
2022-11-20T11:41:02.501Z,27.42
2022-11-20T11:43:55.958Z,25.42
2022-11-20T11:46:36.317Z,27.85
2022-11-20T11:49:17.157Z,22.15
2022-11-20T11:52:04.794Z,25.40
2022-11-20T11:54:34.570Z,24.02
2022-11-20T11:57:04.588Z,26.58
2022-11-20T12:00:09.100Z,26.20
2022-11-20T12:02:40.079Z,27.15
2022-11-20T12:05:44.621Z,27.33
2022-11-20T12:08:40.304Z,26.23
2022-11-20T12:11:20.149Z,24.25
2022-11-20T12:13:52.461Z,22.25
2022-11-20T12:16:20.998Z,27.27
2022-11-20T12:18:50.956Z,23.23
2022-11-20T12:21:23.096Z,20.20
2022-11-20T12:24:07.614Z,15.98
2022-11-20T12:26:57.232Z,20.60
2022-11-20T12:29:51.272Z,18.35
2022-11-20T12:32:23.362Z,18.45
2022-11-20T12:35:17.577Z,24.63
2022-11-20T12:38:02.328Z,17.70
2022-11-20T12:40:43.628Z,17.75
2022-11-20T12:43:40.660Z,16.65
2022-11-20T12:46:07.018Z,19.20
2022-11-20T12:48:50.133Z,16.27
2022-11-20T12:51:19.408Z,16.30
2022-11-20T12:54:10.049Z,18.25
2022-11-20T12:57:18.214Z,16.33
2022-11-20T12:59:54.231Z,16.75
2022-11-20T13:02:27.041Z,17.33
2022-11-20T13:05:10.697Z,20.42
2022-11-20T13:07:37.641Z,17.42
2022-11-20T13:10:11.733Z,18.02
2022-11-20T13:12:52.646Z,19.33
2022-11-20T13:15:35.064Z,16.55
2022-11-20T13:18:04.100Z,17.20
2022-11-20T13:20:34.084Z,21.67
2022-11-20T13:23:00.707Z,19.30
2022-11-20T13:25:27.148Z,17.42
2022-11-20T13:27:55.055Z,18.08
2022-11-20T13:30:26.686Z,16.70
2022-11-20T13:33:00.732Z,16.25
2022-11-20T13:35:30.518Z,19.38
2022-11-20T13:38:09.707Z,16.25
2022-11-20T13:40:52.253Z,17.63
2022-11-20T13:43:41.679Z,17.67
2022-11-20T13:46:10.103Z,19.20
2022-11-20T13:48:42.355Z,22.40
2022-11-20T13:51:23.217Z,23.48
2022-11-20T13:54:18.979Z,14.80
2022-11-20T13:57:04.236Z,16.33
2022-11-20T13:59:52.196Z,19.88
2022-11-20T14:02:20.686Z,17.08
2022-11-20T14:04:50.399Z,21.10
2022-11-20T14:07:19.751Z,18.98
2022-11-20T14:09:54.477Z,17.48
2022-11-20T14:12:32.988Z,20.60
2022-11-20T14:14:59.890Z,20.48
2022-11-20T14:17:35.846Z,16.15
2022-11-20T14:20:06.282Z,18.15
2022-11-20T14:22:33.111Z,16.73
2022-11-20T14:25:15.118Z,18.95
2022-11-20T14:27:43.866Z,16.05
2022-11-20T14:30:16.092Z,17.90
2022-11-20T14:32:43.937Z,19.58
2022-11-20T14:35:19.928Z,16.35
2022-11-20T14:37:46.669Z,18.40
2022-11-20T14:40:36.020Z,18.02
2022-11-20T14:43:17.224Z,17.83
2022-11-20T14:45:44.781Z,15.70
2022-11-20T14:48:12.424Z,16.70
2022-11-20T14:50:39.263Z,17.00
2022-11-20T14:53:05.915Z,23.02
2022-11-20T14:55:38.230Z,19.63
2022-11-20T14:58:07.504Z,18.85
2022-11-20T15:00:35.760Z,18.98
2022-11-20T15:03:02.321Z,23.08
2022-11-20T15:05:49.252Z,17.77
2022-11-20T15:08:17.202Z,19.83
2022-11-20T15:10:49.281Z,22.88
2022-11-20T15:13:37.153Z,19.05
2022-11-20T15:16:14.184Z,19.27
2022-11-20T15:18:44.682Z,17.92
2022-11-20T15:21:13.482Z,26.75
2022-11-20T15:23:39.955Z,22.08
2022-11-20T15:26:07.788Z,18.50
2022-11-20T15:28:42.125Z,21.20
2022-11-20T15:31:13.061Z,21.02
2022-11-20T15:33:39.587Z,23.33
2022-11-20T15:36:06.148Z,20.38
2022-11-20T15:38:32.585Z,21.70
2022-11-20T15:40:59.113Z,24.42
2022-11-20T15:43:25.552Z,23.02
2022-11-20T15:45:55.594Z,22.17
2022-11-20T15:48:28.914Z,19.00
2022-11-20T15:51:18.017Z,23.52
2022-11-20T15:53:44.613Z,22.83
2022-11-20T15:56:15.036Z,23.42
2022-11-20T15:58:42.316Z,21.75
2022-11-20T16:01:17.425Z,19.42
2022-11-20T16:03:44.321Z,27.10
2022-11-20T16:06:10.720Z,19.52
2022-11-20T16:08:37.321Z,20.67
2022-11-20T16:11:04.360Z,21.90
2022-11-20T16:13:51.589Z,20.17
2022-11-20T16:16:22.531Z,24.42
2022-11-20T16:18:49.682Z,23.27
2022-11-20T16:21:16.352Z,19.25
2022-11-20T16:23:43.425Z,21.17
2022-11-20T16:26:14.587Z,23.42
2022-11-20T16:28:41.783Z,24.10
2022-11-20T16:31:17.106Z,23.88
2022-11-20T16:33:43.997Z,23.25
2022-11-20T16:36:15.195Z,24.27
2022-11-20T16:38:42.031Z,22.00
2022-11-20T16:41:15.864Z,21.67
2022-11-20T16:43:52.223Z,19.17
2022-11-20T16:46:21.757Z,20.38
2022-11-20T16:49:03.289Z,27.02
2022-11-20T16:51:32.535Z,25.40
2022-11-20T16:54:02.408Z,21.88
2022-11-20T16:56:28.847Z,21.60
2022-11-20T16:58:57.545Z,29.08
2022-11-20T17:01:25.795Z,21.02
2022-11-20T17:04:03.244Z,24.33
2022-11-20T17:06:34.180Z,24.20
2022-11-20T17:09:00.940Z,26.88
2022-11-20T17:11:28.474Z,25.38
2022-11-20T17:13:56.166Z,29.00
2022-11-20T17:16:24.180Z,31.23
2022-11-20T17:18:50.798Z,32.63
2022-11-20T17:21:18.838Z,32.05
2022-11-20T17:23:46.575Z,35.15
2022-11-20T17:26:22.301Z,31.38
2022-11-20T17:29:02.988Z,28.52
2022-11-20T17:31:31.594Z,30.03
2022-11-20T17:34:00.196Z,32.75
2022-11-20T17:36:28.004Z,32.67
2022-11-20T17:38:54.721Z,30.40
2022-11-20T17:41:25.162Z,36.65
2022-11-20T17:43:56.302Z,32.72
2022-11-20T17:46:25.261Z,32.15
2022-11-20T17:48:52.052Z,32.10
2022-11-20T17:51:27.639Z,33.92
2022-11-20T17:53:56.467Z,26.92
2022-11-20T17:56:41.660Z,34.55
2022-11-20T17:59:12.720Z,33.08
2022-11-20T18:01:40.386Z,31.30
2022-11-20T18:04:07.049Z,38.60
2022-11-20T18:06:33.654Z,29.80
2022-11-20T18:09:02.540Z,33.25
2022-11-20T18:11:33.624Z,35.15
2022-11-20T18:14:21.173Z,27.85
2022-11-20T18:16:53.577Z,28.88
2022-11-20T18:19:32.383Z,34.00
2022-11-20T18:22:01.250Z,32.17
2022-11-20T18:24:28.164Z,27.70
2022-11-20T18:26:54.618Z,30.45
2022-11-20T18:29:21.296Z,29.60
2022-11-20T18:31:48.226Z,30.02
2022-11-20T18:34:14.759Z,28.08
2022-11-20T18:36:42.728Z,30.38
2022-11-20T18:39:11.931Z,29.42
2022-11-20T18:41:57.627Z,31.58
2022-11-20T18:44:45.682Z,30.65
2022-11-20T18:47:15.858Z,31.50
2022-11-20T18:49:52.622Z,34.75
2022-11-20T18:52:25.294Z,35.80
2022-11-20T18:54:51.987Z,30.60
2022-11-20T18:57:24.645Z,41.72
2022-11-20T18:59:51.424Z,35.75
2022-11-20T19:02:20.207Z,37.50
2022-11-20T19:04:47.044Z,32.95
2022-11-20T19:07:15.772Z,33.72
2022-11-20T19:09:44.466Z,33.70
2022-11-20T19:12:12.577Z,32.95
2022-11-20T19:14:39.339Z,31.65
2022-11-20T19:17:06.939Z,35.35
2022-11-20T19:19:36.534Z,38.53
2022-11-20T19:22:04.525Z,29.45
2022-11-20T19:24:31.090Z,28.42
2022-11-20T19:26:57.611Z,30.92
2022-11-20T19:29:25.655Z,31.27
2022-11-20T19:31:52.413Z,29.27
2022-11-20T19:34:18.937Z,33.35
2022-11-20T19:36:45.917Z,28.92
2022-11-20T19:39:12.970Z,34.10
2022-11-20T19:41:40.894Z,31.08
2022-11-20T19:44:09.930Z,32.40
2022-11-20T19:46:37.905Z,29.58
2022-11-20T19:49:07.417Z,31.13
2022-11-20T19:51:35.070Z,32.63
2022-11-20T19:54:01.576Z,30.55
2022-11-20T19:56:29.624Z,30.08
2022-11-20T19:58:57.082Z,32.67
2022-11-20T20:01:26.788Z,30.73
2022-11-20T20:03:54.042Z,33.33
2022-11-20T20:06:26.149Z,31.40
2022-11-20T20:09:06.247Z,32.53
2022-11-20T20:11:34.258Z,33.40
2022-11-20T20:14:02.479Z,27.02
2022-11-20T20:16:29.157Z,34.03
2022-11-20T20:18:57.969Z,36.67
2022-11-20T20:21:24.449Z,34.58
2022-11-20T20:23:53.581Z,29.20
2022-11-20T20:26:21.578Z,30.25
2022-11-20T20:28:48.078Z,33.90
2022-11-20T20:31:17.991Z,31.75
2022-11-20T20:33:45.235Z,33.88
2022-11-20T20:36:13.591Z,33.53
2022-11-20T20:38:40.308Z,33.40
2022-11-20T20:41:06.744Z,31.67
2022-11-20T20:43:53.112Z,33.88
2022-11-20T20:46:20.048Z,32.60
2022-11-20T20:48:50.255Z,27.48
2022-11-20T20:51:20.689Z,31.30
2022-11-20T20:53:47.128Z,32.65
2022-11-20T20:56:13.812Z,28.83
2022-11-20T20:58:40.580Z,30.90
2022-11-20T21:01:09.382Z,36.92
2022-11-20T21:03:36.808Z,31.08
2022-11-20T21:06:05.113Z,34.10
2022-11-20T21:08:31.715Z,37.17
2022-11-20T21:11:03.846Z,27.23
2022-11-20T21:13:30.876Z,31.35
2022-11-20T21:15:57.544Z,29.75
2022-11-20T21:18:26.185Z,32.17
2022-11-20T21:21:11.742Z,30.55
2022-11-20T21:23:38.757Z,31.73
2022-11-20T21:26:09.177Z,36.15
2022-11-20T21:28:37.505Z,23.63
2022-11-20T21:31:09.865Z,28.88
2022-11-20T21:33:44.510Z,28.00
2022-11-20T21:36:14.010Z,33.03
2022-11-20T21:38:40.948Z,29.45
2022-11-20T21:41:08.740Z,29.73
2022-11-20T21:43:35.771Z,31.20
2022-11-20T21:46:08.351Z,29.73
2022-11-20T21:48:37.014Z,33.58
2022-11-20T21:51:28.045Z,29.60
2022-11-20T21:53:55.368Z,28.92
2022-11-20T21:56:24.664Z,31.65
2022-11-20T21:58:53.172Z,30.27
2022-11-20T22:01:27.947Z,31.80
2022-11-20T22:04:02.416Z,34.70
2022-11-20T22:06:34.136Z,33.33
2022-11-20T22:09:03.804Z,31.55
2022-11-20T22:11:30.720Z,30.08
2022-11-20T22:14:15.606Z,34.78
2022-11-20T22:16:42.317Z,32.92
2022-11-20T22:19:09.296Z,32.25
2022-11-20T22:21:38.439Z,35.13
2022-11-20T22:24:04.940Z,34.17
2022-11-20T22:26:39.657Z,32.97
2022-11-20T22:29:07.640Z,33.05
2022-11-20T22:31:34.157Z,31.05
2022-11-20T22:34:02.454Z,35.45
2022-11-20T22:36:31.082Z,33.88
2022-11-20T22:38:58.191Z,33.90
2022-11-20T22:41:27.381Z,30.63
2022-11-20T22:43:56.223Z,38.15
2022-11-20T22:46:23.526Z,40.00
2022-11-20T22:48:51.195Z,41.78
2022-11-20T22:51:22.175Z,39.40
2022-11-20T22:53:49.337Z,39.58
2022-11-20T22:56:17.198Z,39.67
2022-11-20T22:58:48.406Z,42.83
2022-11-20T23:01:20.094Z,47.10
2022-11-20T23:03:48.646Z,46.47
2022-11-20T23:06:16.816Z,45.42
2022-11-20T23:08:43.818Z,45.63
2022-11-20T23:11:12.592Z,42.83
2022-11-20T23:13:39.447Z,38.47
2022-11-20T23:16:17.653Z,43.15
2022-11-20T23:18:44.876Z,40.17
2022-11-20T23:21:13.323Z,41.10
2022-11-20T23:23:40.333Z,39.42
2022-11-20T23:26:12.139Z,44.28
2022-11-20T23:28:40.455Z,43.78
2022-11-20T23:31:07.832Z,42.92
2022-11-20T23:33:39.318Z,44.50
2022-11-20T23:36:06.658Z,43.47
2022-11-20T23:38:33.884Z,42.20
2022-11-20T23:41:01.241Z,42.53
2022-11-20T23:43:27.789Z,43.45
2022-11-20T23:45:59.618Z,42.55
2022-11-20T23:48:28.690Z,40.08
2022-11-20T23:50:55.881Z,47.03
2022-11-20T23:53:22.787Z,41.08
2022-11-20T23:55:54.211Z,43.03
